CZUM/ZUM METAR and TAF weather

Enter ICAO airport designator
Station Type Date Time Source
CZUM METAR 2018/07/21 11:00 UTC NOAA

CZUM 211100Z AUTO VRB02KT 9SM FEW049 BKN055 BKN072 OVC120 13/12 A3021 RMK SLP242


Station Type Date Time Source
CZUM Decoded METAR 2018/07/21 11:00 UTC NOAA

Churchill Falls, Nfld., Canada (CZUM) 53-33N 064-06W 440M
Jul 21, 2018 - 07:00 AM EDT / 2018.07.21 1100 UTC
Wind: Variable at 2 MPH (2 KT):0
Visibility: 9 mile(s):0
Sky conditions: overcast
Temperature: 55 F (13 C)
Dew Point: 53 F (12 C)
Relative Humidity: 93%
Pressure (altimeter): 30.21 in. Hg (1023 hPa)
ob: CZUM 211100Z AUTO VRB02KT 9SM FEW049 BKN055 BKN072 OVC120 13/12 A3021 RMK SLP242
cycle: 11

Station Type Date Time Source
CZUM TAF 2018/07/21 08:42 UTC NOAA

TAF CZUM 210738Z 2108/2120 VRB03KT P6SM SCT040
TEMPO 2108/2112 BKN040
FM211200 VRB03KT P6SM BKN040
TEMPO 2112/2120 P6SM -SHRA BKN020
BECMG 2112/2114 09007KT
RMK FCST BASED ON AUTO OBS. NXT FCST BY 211400Z


Example: see airport list